NCAR-RAP Real-Time Weather Data

Output produced by METARs form (08 May 2021  01:42 UTC)
found at http://weather.rap.ucar.edu/surface/
 
KCRE 080053Z AUTO 00000KT 10SM CLR 14/11 A2994 RMK AO1 SLP140 T01390106
KCRE 072353Z 00000KT 10SM CLR 17/07 A2992 RMK AO1 SLP132 60001 T01720072 10222 20172 51022
KCRE 072253Z 33008G16KT 10SM CLR 19/07 A2990 RMK AO1 SLP126 T01890072
KCRE 072153Z 33007KT 300V010 10SM FEW055 SCT095 19/11 A2988 RMK AO1 RAB20E40 SLP119 P0001 T01940111
KCRE 072053Z 29007KT 250V340 10SM FEW065 22/09 A2985 RMK AO1 SLP110 T02170089 55008
KCRE 071953Z 29007KT 10SM SCT100 22/08 A2984 RMK AO1 SLP106 T02170083
KCRE 071853Z 30007G17KT 270V360 10SM FEW055 FEW095 21/08 A2986 RMK AO1 SLP112 T02110083
KCRE 071753Z 34008G17KT 10SM SCT045 BKN055 21/09 A2988 RMK AO1 SLP117 T02110094 10217 20167 51011
KCRE 071653Z 28010G15KT 10SM FEW050 21/11 A2987 RMK AO1 SLP117 T02060111
KCRE 071553Z 36010G17KT 10SM CLR 19/12 A2988 RMK AO1 WSHFT 1444 SLP117 T01940117
KCRE 071504Z 36015G24KT 10SM FEW029 SCT040 BKN049 18/12 A2986 RMK AO1 WSHFT 1444 T01830117
KCRE 071453Z 33010G21KT 10SM FEW039 SCT049 21/13 A2984 RMK AO1 LTG DSNT NE SLP107 T02110128 55000
KCRE 071353Z 15008KT 10SM FEW026 FEW060 SCT075 21/15 A2983 RMK AO1 LTG DSNT N AND NE SLP101 T02110150
KCRE 071339Z 14006KT 10SM FEW012 SCT025 BKN075 21/16 A2983 RMK AO1 LTG DSNT N AND NE T02060156
KCRE 071325Z 14005KT 10SM SCT013 SCT017 BKN025 19/16 A2983 RMK AO1 T01940161
KCRE 071253Z 10006KT 10SM SCT032 19/17 A2983 RMK AO1 SLP102 T01940167
KCRE 071153Z 00000KT 10SM FEW029 SCT037 BKN065 17/14 A2984 RMK AO1 SLP107 T01670144 10167 20133 55000
KCRE 071053Z 06005KT 10SM CLR 14/13 A2983 RMK AO1 SLP102 T01390133
KCRE 070953Z AUTO 02004KT 10SM CLR 14/13 A2983 RMK AO1 SLP103 T01390128